Time;durP1;ratioP1;P1;durP2;ratioP2;P2;SDS_P1;SDS_P2;PMS_P1;PMS_P2;Temp;Humidity;BMP_temperature;BMP_pressure;BME280_temperature;BME280_humidity;BME280_pressure;Samples;Min_cycle;Max_cycle;Signal;HPM_P1;HPM_P2
2023/04/09 00:00:36;;;;;;;4.10;3.17;;;;;;;;;;5099307;28;20225;-71
2023/04/09 00:03:04;;;;;;;2.83;2.53;;;;;;;;;;5099031;28;20661;-71
2023/04/09 00:05:32;;;;;;;3.27;2.83;;;;;;;;;;5098933;28;20209;-71
2023/04/09 00:08:00;;;;;;;5.10;3.57;;;;;;;;;;5099080;28;20228;-71
2023/04/09 00:10:28;;;;;;;5.93;3.30;;;;;;;;;;5098814;28;20226;-71
2023/04/09 00:12:56;;;;;;;3.40;3.07;;;;;;;;;;5098935;28;20206;-71
2023/04/09 00:15:24;;;;;;;5.13;3.67;;;;;;;;;;5098701;28;20237;-71
2023/04/09 00:18:00;;;;;;;3.03;2.70;;;;;;;;;;5098966;28;20209;-71
2023/04/09 00:20:28;;;;;;;4.47;3.50;;;;;;;;;;5099034;28;20233;-71
2023/04/09 00:22:57;;;;;;;3.33;2.63;;;;;;;;;;5098682;28;20292;-71
2023/04/09 00:25:24;;;;;;;4.80;3.57;;;;;;;;;;5098367;28;20217;-71
2023/04/09 00:27:52;;;;;;;4.17;3.07;;;;;;;;;;5098878;28;20248;-71
2023/04/09 00:30:20;;;;;;;3.27;2.73;;;;;;;;;;5098787;28;20581;-71
2023/04/09 00:32:48;;;;;;;2.93;2.43;;;;;;;;;;5097983;28;20209;-71
2023/04/09 00:35:18;;;;;;;3.20;2.87;;;;;;;;;;5098758;28;20201;-70
2023/04/09 00:37:46;;;;;;;3.83;3.10;;;;;;;;;;5099000;28;20201;-71
2023/04/09 00:40:14;;;;;;;4.03;3.03;;;;;;;;;;5099089;28;20304;-71
2023/04/09 00:42:42;;;;;;;3.37;3.07;;;;;;;;;;5097251;28;20205;-71
2023/04/09 00:45:10;;;;;;;4.43;3.40;;;;;;;;;;5098944;28;20288;-71
2023/04/09 00:47:38;;;;;;;3.20;2.87;;;;;;;;;;5098511;28;20205;-71
2023/04/09 00:50:07;;;;;;;3.70;3.37;;;;;;;;;;5098526;28;20217;-71
2023/04/09 00:52:36;;;;;;;3.87;3.17;;;;;;;;;;5098393;28;20205;-71
2023/04/09 00:55:05;;;;;;;6.03;3.07;;;;;;;;;;5098122;28;20269;-71
2023/04/09 00:57:33;;;;;;;5.40;3.10;;;;;;;;;;5098047;28;20209;-71
2023/04/09 01:00:03;;;;;;;4.17;3.03;;;;;;;;;;5098318;28;20233;-71
2023/04/09 01:02:31;;;;;;;3.17;2.80;;;;;;;;;;5098163;28;20209;-71
2023/04/09 01:04:59;;;;;;;3.40;3.07;;;;;;;;;;5098064;28;20571;-71
2023/04/09 01:07:36;;;;;;;3.60;3.30;;;;;;;;;;5098295;28;20212;-71
2023/04/09 01:10:12;;;;;;;4.00;3.10;;;;;;;;;;5097819;28;20220;-71
2023/04/09 01:12:45;;;;;;;4.60;3.53;;;;;;;;;;5098100;28;20556;-70
2023/04/09 01:15:15;;;;;;;4.10;3.00;;;;;;;;;;5097740;28;20260;-71
2023/04/09 01:17:46;;;;;;;4.00;2.73;;;;;;;;;;5098056;28;20209;-71
2023/04/09 01:20:17;;;;;;;4.67;3.20;;;;;;;;;;5097602;28;20375;-71
2023/04/09 01:22:52;;;;;;;3.80;2.60;;;;;;;;;;5098170;28;20263;-71
2023/04/09 01:25:29;;;;;;;4.23;3.23;;;;;;;;;;5097958;28;20209;-71
2023/04/09 01:28:08;;;;;;;3.63;3.33;;;;;;;;;;5097889;28;20676;-71
2023/04/09 01:30:36;;;;;;;3.60;3.00;;;;;;;;;;5097981;28;20636;-71
2023/04/09 01:33:05;;;;;;;3.87;2.90;;;;;;;;;;5098113;28;20205;-71
2023/04/09 01:35:33;;;;;;;3.63;3.20;;;;;;;;;;5098269;28;20212;-71
2023/04/09 01:38:02;;;;;;;3.47;2.87;;;;;;;;;;5097704;28;20213;-71
2023/04/09 01:40:30;;;;;;;3.87;3.47;;;;;;;;;;5097206;28;20229;-71
2023/04/09 01:43:00;;;;;;;4.37;2.80;;;;;;;;;;5096577;28;20216;-71
2023/04/09 01:45:29;;;;;;;5.33;3.00;;;;;;;;;;5101805;28;20205;-71
2023/04/09 01:47:57;;;;;;;3.40;3.10;;;;;;;;;;5101857;28;20233;-71
2023/04/09 01:50:25;;;;;;;3.60;2.70;;;;;;;;;;5101897;28;20228;-71
2023/04/09 01:52:53;;;;;;;4.57;3.20;;;;;;;;;;5101581;28;20201;-71
2023/04/09 01:55:21;;;;;;;4.70;3.33;;;;;;;;;;5101545;28;20212;-71
2023/04/09 01:57:49;;;;;;;3.47;3.17;;;;;;;;;;5101810;28;20269;-71
2023/04/09 02:00:17;;;;;;;3.83;2.73;;;;;;;;;;5101519;28;20292;-71
2023/04/09 02:02:52;;;;;;;3.93;3.10;;;;;;;;;;5101626;28;20201;-71
2023/04/09 02:05:22;;;;;;;3.40;3.07;;;;;;;;;;5101603;28;20208;-71
2023/04/09 02:07:52;;;;;;;5.77;3.20;;;;;;;;;;5101436;28;20205;-71
2023/04/09 02:10:21;;;;;;;3.60;3.10;;;;;;;;;;5100967;28;20308;-71
2023/04/09 02:12:51;;;;;;;4.77;4.27;;;;;;;;;;5101317;28;20228;-71
2023/04/09 02:15:19;;;;;;;5.30;3.00;;;;;;;;;;5101100;28;20322;-71
2023/04/09 02:17:48;;;;;;;2.47;2.27;;;;;;;;;;5101082;28;20299;-71
2023/04/09 02:20:17;;;;;;;4.17;2.97;;;;;;;;;;5101130;28;20221;-71
2023/04/09 02:22:45;;;;;;;4.47;3.10;;;;;;;;;;5101361;28;20209;-71
2023/04/09 02:25:13;;;;;;;5.83;3.60;;;;;;;;;;5100791;28;20213;-71
2023/04/09 02:27:41;;;;;;;3.13;2.80;;;;;;;;;;5101266;28;20206;-71
2023/04/09 02:30:09;;;;;;;5.13;3.07;;;;;;;;;;5101171;28;20221;-70
2023/04/09 02:32:37;;;;;;;4.10;3.20;;;;;;;;;;5100721;28;20240;-71
2023/04/09 02:35:07;;;;;;;3.97;3.37;;;;;;;;;;5101107;28;20202;-71
2023/04/09 02:37:35;;;;;;;3.80;3.50;;;;;;;;;;5101419;28;20209;-70
2023/04/09 02:40:04;;;;;;;3.67;3.17;;;;;;;;;;5100543;28;20308;-70
2023/04/09 02:42:31;;;;;;;4.10;3.20;;;;;;;;;;5099372;28;20229;-71
2023/04/09 02:45:00;;;;;;;6.83;3.60;;;;;;;;;;5100925;28;20251;-71
2023/04/09 02:47:29;;;;;;;3.90;3.50;;;;;;;;;;5100716;28;20202;-71
2023/04/09 02:49:57;;;;;;;3.83;3.43;;;;;;;;;;5100618;28;20221;-71
2023/04/09 02:52:26;;;;;;;3.47;2.80;;;;;;;;;;5100734;28;20237;-71
2023/04/09 02:54:54;;;;;;;3.93;3.53;;;;;;;;;;5096234;28;20202;-71
2023/04/09 02:57:22;;;;;;;6.13;3.60;;;;;;;;;;5098695;28;20680;-71
2023/04/09 02:59:50;;;;;;;5.00;3.93;;;;;;;;;;5100142;28;20689;-71
2023/04/09 03:02:18;;;;;;;4.90;4.20;;;;;;;;;;5100242;28;20961;-71
2023/04/09 03:04:46;;;;;;;4.07;3.63;;;;;;;;;;5100175;28;20660;-70
2023/04/09 03:07:14;;;;;;;4.83;3.90;;;;;;;;;;5099969;28;20202;-71
2023/04/09 03:09:43;;;;;;;4.73;3.77;;;;;;;;;;5100043;28;20260;-70
2023/04/09 03:12:11;;;;;;;4.63;4.13;;;;;;;;;;5099865;28;20198;-70
2023/04/09 03:14:39;;;;;;;4.23;3.50;;;;;;;;;;5100030;28;20291;-71
2023/04/09 03:17:08;;;;;;;6.07;4.37;;;;;;;;;;5099892;28;20269;-70
2023/04/09 03:19:36;;;;;;;5.67;3.87;;;;;;;;;;5099899;28;20257;-71
2023/04/09 03:22:04;;;;;;;4.83;3.40;;;;;;;;;;5086692;28;20201;-70
2023/04/09 03:24:32;;;;;;;4.50;4.00;;;;;;;;;;5099902;28;20209;-71
2023/04/09 03:27:01;;;;;;;4.23;3.40;;;;;;;;;;5099871;28;20229;-71
2023/04/09 03:29:29;;;;;;;5.90;4.10;;;;;;;;;;5099940;28;20278;-71
2023/04/09 03:31:57;;;;;;;4.97;3.80;;;;;;;;;;5100299;28;20206;-71
2023/04/09 03:34:25;;;;;;;5.37;4.13;;;;;;;;;;5099621;28;20232;-70
2023/04/09 03:36:53;;;;;;;8.63;4.43;;;;;;;;;;5099937;28;20209;-71
2023/04/09 03:39:21;;;;;;;7.00;4.63;;;;;;;;;;5099164;28;20653;-71
2023/04/09 03:41:49;;;;;;;4.87;4.03;;;;;;;;;;5097947;28;20225;-71
2023/04/09 03:44:18;;;;;;;5.63;4.57;;;;;;;;;;5099654;28;20211;-71
2023/04/09 03:46:46;;;;;;;4.97;4.13;;;;;;;;;;5099641;28;20202;-71
2023/04/09 03:49:14;;;;;;;6.90;4.40;;;;;;;;;;5099297;28;20545;-71
2023/04/09 03:51:43;;;;;;;5.33;4.30;;;;;;;;;;5099373;28;20209;-71
2023/04/09 03:54:11;;;;;;;5.20;4.23;;;;;;;;;;5098988;28;20211;-71
2023/04/09 03:56:39;;;;;;;5.43;4.27;;;;;;;;;;5099416;28;20233;-71
2023/04/09 03:59:07;;;;;;;6.60;4.80;;;;;;;;;;5099380;28;20209;-70
2023/04/09 04:01:36;;;;;;;8.53;4.63;;;;;;;;;;5099260;28;20280;-71
2023/04/09 04:04:04;;;;;;;5.57;4.70;;;;;;;;;;5099096;28;20637;-71
2023/04/09 04:06:33;;;;;;;5.73;4.37;;;;;;;;;;5098221;28;20288;-70
2023/04/09 04:09:01;;;;;;;6.40;4.50;;;;;;;;;;5098805;28;20293;-70
2023/04/09 04:11:29;;;;;;;4.83;4.00;;;;;;;;;;5098922;28;20205;-71
2023/04/09 04:13:57;;;;;;;5.50;4.00;;;;;;;;;;5099228;28;20205;-71
2023/04/09 04:16:25;;;;;;;7.97;4.43;;;;;;;;;;5098661;28;20280;-70
2023/04/09 04:18:55;;;;;;;5.63;4.57;;;;;;;;;;5099104;28;20217;-71
2023/04/09 04:21:23;;;;;;;5.53;4.60;;;;;;;;;;5098770;28;20234;-71
2023/04/09 04:23:51;;;;;;;7.10;4.47;;;;;;;;;;5099028;28;20198;-71
2023/04/09 04:26:19;;;;;;;5.37;4.23;;;;;;;;;;5083645;28;20685;-71
2023/04/09 04:28:47;;;;;;;5.67;4.23;;;;;;;;;;5079244;28;20237;-71
2023/04/09 04:31:15;;;;;;;6.20;4.33;;;;;;;;;;5078576;28;20313;-70
2023/04/09 04:33:43;;;;;;;4.97;4.43;;;;;;;;;;5078409;28;20260;-71
2023/04/09 04:36:13;;;;;;;6.73;4.70;;;;;;;;;;5078126;28;20328;-71
2023/04/09 04:38:41;;;;;;;5.60;4.60;;;;;;;;;;5078068;28;20245;-71
2023/04/09 04:41:10;;;;;;;6.93;4.50;;;;;;;;;;5095154;28;20229;-71
2023/04/09 04:43:40;;;;;;;6.87;4.93;;;;;;;;;;5098737;28;20202;-70
2023/04/09 04:46:08;;;;;;;7.03;5.17;;;;;;;;;;5098422;28;20209;-70
2023/04/09 04:48:36;;;;;;;9.90;4.50;;;;;;;;;;5098410;28;20227;-70
2023/04/09 04:51:04;;;;;;;6.53;4.60;;;;;;;;;;5098106;28;20664;-70
2023/04/09 04:53:33;;;;;;;7.37;5.63;;;;;;;;;;5098524;28;20209;-70
2023/04/09 04:56:01;;;;;;;7.07;4.43;;;;;;;;;;5097857;28;20580;-70
2023/04/09 04:58:30;;;;;;;4.07;3.50;;;;;;;;;;5098107;28;20271;-70
2023/04/09 05:00:59;;;;;;;7.37;4.87;;;;;;;;;;5098073;28;20312;-70
2023/04/09 05:03:27;;;;;;;7.70;4.57;;;;;;;;;;5098356;28;20251;-70
2023/04/09 05:05:55;;;;;;;6.23;4.50;;;;;;;;;;5098313;28;20213;-70
2023/04/09 05:08:23;;;;;;;6.53;4.93;;;;;;;;;;5097994;28;20636;-70
2023/04/09 05:10:54;;;;;;;6.40;4.57;;;;;;;;;;5097933;28;20226;-70
2023/04/09 05:13:23;;;;;;;6.83;4.63;;;;;;;;;;5098196;28;20255;-70
2023/04/09 05:15:51;;;;;;;5.83;4.20;;;;;;;;;;5097682;28;20334;-70
2023/04/09 05:18:18;;;;;;;8.23;5.30;;;;;;;;;;5097547;28;20578;-70
2023/04/09 05:20:47;;;;;;;5.90;4.87;;;;;;;;;;5097731;28;20225;-70
2023/04/09 05:23:14;;;;;;;5.00;4.50;;;;;;;;;;5098055;28;20205;-70
2023/04/09 05:25:42;;;;;;;7.90;5.13;;;;;;;;;;5097616;28;20283;-70
2023/04/09 05:28:12;;;;;;;5.53;4.87;;;;;;;;;;5098007;28;20201;-70
2023/04/09 05:30:40;;;;;;;7.13;4.87;;;;;;;;;;5097767;28;20723;-70
2023/04/09 05:33:08;;;;;;;6.50;4.33;;;;;;;;;;5097558;28;20201;-70
2023/04/09 05:35:38;;;;;;;4.83;4.33;;;;;;;;;;5098042;28;20205;-70
2023/04/09 05:38:06;;;;;;;7.00;4.83;;;;;;;;;;5097805;28;20255;-70
2023/04/09 05:40:35;;;;;;;6.70;5.20;;;;;;;;;;5096764;28;20245;-70
2023/04/09 05:43:03;;;;;;;7.90;5.40;;;;;;;;;;5097579;28;20264;-70
2023/04/09 05:45:32;;;;;;;7.50;4.80;;;;;;;;;;5097983;28;20243;-70
2023/04/09 05:48:00;;;;;;;9.00;5.07;;;;;;;;;;5090708;28;20276;-70
2023/04/09 05:50:28;;;;;;;7.37;4.73;;;;;;;;;;5077245;28;20295;-70
2023/04/09 05:52:56;;;;;;;7.67;5.40;;;;;;;;;;5077371;28;20202;-70
2023/04/09 05:55:24;;;;;;;8.73;5.73;;;;;;;;;;5081277;28;20236;-70
2023/04/09 05:57:52;;;;;;;10.83;7.80;;;;;;;;;;5097589;28;20244;-70
2023/04/09 06:00:20;;;;;;;8.73;5.07;;;;;;;;;;5097374;28;20659;-70
2023/04/09 06:02:50;;;;;;;6.07;4.90;;;;;;;;;;5097317;28;20283;-70
2023/04/09 06:05:18;;;;;;;9.53;6.10;;;;;;;;;;5097441;28;20691;-70
2023/04/09 06:07:46;;;;;;;6.40;4.67;;;;;;;;;;5097739;28;20209;-70
2023/04/09 06:10:14;;;;;;;6.23;4.77;;;;;;;;;;5097048;28;20729;-70
2023/04/09 06:12:42;;;;;;;7.57;5.67;;;;;;;;;;5097426;28;20633;-70
2023/04/09 06:15:10;;;;;;;6.47;5.07;;;;;;;;;;5097216;28;20241;-70
2023/04/09 06:17:38;;;;;;;7.57;5.20;;;;;;;;;;5097522;28;20213;-70
2023/04/09 06:20:08;;;;;;;6.73;5.70;;;;;;;;;;5097420;28;20256;-70
2023/04/09 06:22:36;;;;;;;9.43;5.50;;;;;;;;;;5097555;28;20225;-71
2023/04/09 06:25:04;;;;;;;6.10;5.00;;;;;;;;;;5096978;28;20224;-70
2023/04/09 06:27:32;;;;;;;8.13;5.47;;;;;;;;;;5097531;28;20233;-71
2023/04/09 06:30:00;;;;;;;8.10;5.30;;;;;;;;;;5097534;28;20221;-70
2023/04/09 06:32:28;;;;;;;9.30;5.63;;;;;;;;;;5101072;28;20197;-70
2023/04/09 06:35:00;;;;;;;5.67;4.80;;;;;;;;;;5100806;28;20265;-70
2023/04/09 06:37:29;;;;;;;7.90;6.33;;;;;;;;;;5101136;28;20255;-70
2023/04/09 06:39:57;;;;;;;5.97;4.97;;;;;;;;;;5100394;28;20221;-70
2023/04/09 06:42:28;;;;;;;7.10;5.77;;;;;;;;;;5098326;28;20635;-71
2023/04/09 06:44:56;;;;;;;7.27;5.43;;;;;;;;;;5100949;28;20272;-71
2023/04/09 06:47:24;;;;;;;6.43;5.53;;;;;;;;;;5100459;28;20581;-71
2023/04/09 06:49:52;;;;;;;8.73;6.07;;;;;;;;;;5100789;28;20232;-71
2023/04/09 06:52:20;;;;;;;7.20;5.90;;;;;;;;;;5100681;28;20224;-71
2023/04/09 06:54:50;;;;;;;11.53;6.23;;;;;;;;;;5100464;28;20264;-71
2023/04/09 06:57:18;;;;;;;8.37;5.80;;;;;;;;;;5100592;28;20308;-71
2023/04/09 06:59:46;;;;;;;6.87;5.20;;;;;;;;;;5100675;28;20308;-70
2023/04/09 07:02:14;;;;;;;7.27;5.60;;;;;;;;;;5100325;28;20233;-71
2023/04/09 07:04:42;;;;;;;6.67;5.30;;;;;;;;;;5100579;28;20206;-71
2023/04/09 07:07:11;;;;;;;8.50;5.63;;;;;;;;;;5100111;28;20296;-70
2023/04/09 07:09:39;;;;;;;6.77;5.70;;;;;;;;;;5099613;28;20229;-69
2023/04/09 07:12:08;;;;;;;6.63;5.33;;;;;;;;;;5100131;28;20534;-71
2023/04/09 07:14:36;;;;;;;7.97;5.33;;;;;;;;;;5088142;28;20266;-71
2023/04/09 07:17:04;;;;;;;6.70;4.93;;;;;;;;;;5080068;28;20241;-71
2023/04/09 07:19:32;;;;;;;6.17;5.23;;;;;;;;;;5080264;28;20229;-71
2023/04/09 07:22:00;;;;;;;6.97;5.63;;;;;;;;;;5099828;28;20296;-70
2023/04/09 07:24:28;;;;;;;7.27;5.70;;;;;;;;;;5100156;28;20212;-71
2023/04/09 07:26:56;;;;;;;9.07;6.43;;;;;;;;;;5100015;28;20296;-71
2023/04/09 07:29:26;;;;;;;7.20;5.83;;;;;;;;;;5099748;28;20591;-71
2023/04/09 07:31:54;;;;;;;7.17;5.67;;;;;;;;;;5099748;28;20223;-71
2023/04/09 07:34:22;;;;;;;7.43;5.60;;;;;;;;;;5099720;28;20206;-71
2023/04/09 07:36:50;;;;;;;8.57;5.87;;;;;;;;;;5099668;28;20239;-71
2023/04/09 07:39:19;;;;;;;7.73;5.90;;;;;;;;;;5099155;28;20228;-71
2023/04/09 07:41:47;;;;;;;5.70;5.03;;;;;;;;;;5097181;28;20220;-72
2023/04/09 07:44:16;;;;;;;6.90;5.67;;;;;;;;;;5099641;28;20312;-71
2023/04/09 07:46:45;;;;;;;8.30;5.50;;;;;;;;;;5099653;28;20237;-71
2023/04/09 07:49:13;;;;;;;7.90;5.30;;;;;;;;;;5099581;28;20205;-71
2023/04/09 07:51:41;;;;;;;6.87;6.10;;;;;;;;;;5099731;28;20209;-71
2023/04/09 07:54:09;;;;;;;7.87;5.70;;;;;;;;;;5099296;28;20209;-71
2023/04/09 07:56:37;;;;;;;6.53;5.47;;;;;;;;;;5099582;28;20212;-72
2023/04/09 07:59:05;;;;;;;7.07;5.70;;;;;;;;;;5099293;28;20239;-71
2023/04/09 08:01:33;;;;;;;7.23;5.10;;;;;;;;;;5099376;28;20208;-71
2023/04/09 08:04:02;;;;;;;7.60;5.90;;;;;;;;;;5098996;28;20229;-71
2023/04/09 08:06:31;;;;;;;6.67;5.80;;;;;;;;;;5099334;28;20205;-71
2023/04/09 08:08:59;;;;;;;10.27;5.77;;;;;;;;;;5098663;28;20638;-71
2023/04/09 08:11:27;;;;;;;7.73;5.80;;;;;;;;;;5099065;28;20284;-72
2023/04/09 08:13:55;;;;;;;7.13;5.33;;;;;;;;;;5098898;28;20205;-71
2023/04/09 08:16:24;;;;;;;8.37;6.40;;;;;;;;;;5098800;28;20237;-71
2023/04/09 08:18:52;;;;;;;7.27;5.70;;;;;;;;;;5099051;28;20209;-72
2023/04/09 08:21:21;;;;;;;8.33;5.47;;;;;;;;;;5098806;28;20228;-71
2023/04/09 08:23:49;;;;;;;6.70;5.80;;;;;;;;;;5098365;28;20332;-71
2023/04/09 08:26:18;;;;;;;7.33;5.77;;;;;;;;;;5098576;28;20680;-71
2023/04/09 08:28:45;;;;;;;9.50;6.00;;;;;;;;;;5098692;28;20721;-71
2023/04/09 08:31:14;;;;;;;8.10;6.10;;;;;;;;;;5098496;28;20225;-71
2023/04/09 08:33:42;;;;;;;6.10;5.43;;;;;;;;;;5098552;28;20202;-71
2023/04/09 08:36:11;;;;;;;8.57;6.53;;;;;;;;;;5098339;28;20580;-72
2023/04/09 08:38:40;;;;;;;16.37;5.83;;;;;;;;;;5098121;28;20205;-71
2023/04/09 08:41:17;;;;;;;6.13;5.53;;;;;;;;;;5096648;28;20284;-72
2023/04/09 08:43:46;;;;;;;5.37;4.83;;;;;;;;;;5098660;28;20233;-72
2023/04/09 08:46:19;;;;;;;6.00;5.30;;;;;;;;;;5098160;28;20569;-71
2023/04/09 08:48:48;;;;;;;6.40;5.50;;;;;;;;;;5098442;28;20205;-70
2023/04/09 08:51:17;;;;;;;6.97;5.50;;;;;;;;;;5098497;28;20273;-71
2023/04/09 08:53:49;;;;;;;6.70;5.27;;;;;;;;;;5097465;28;20244;-71
2023/04/09 08:56:17;;;;;;;7.50;5.47;;;;;;;;;;5097975;28;20616;-70
2023/04/09 08:58:45;;;;;;;7.90;5.60;;;;;;;;;;5098121;28;20212;-70
2023/04/09 09:01:20;;;;;;;6.00;5.27;;;;;;;;;;5097830;28;20230;-70
2023/04/09 09:03:52;;;;;;;9.13;6.40;;;;;;;;;;5098081;28;20256;-71
2023/04/09 09:06:22;;;;;;;6.67;5.67;;;;;;;;;;5097935;28;20690;-70
2023/04/09 09:09:07;;;;;;;6.63;4.93;;;;;;;;;;5097958;28;20247;-70
2023/04/09 09:11:36;;;;;;;8.23;6.07;;;;;;;;;;5098392;28;20245;-70
2023/04/09 09:14:04;;;;;;;8.83;5.30;;;;;;;;;;5097847;28;20691;-69
2023/04/09 09:16:34;;;;;;;6.57;5.43;;;;;;;;;;5097986;28;20205;-69
2023/04/09 09:19:02;;;;;;;7.13;5.07;;;;;;;;;;5098100;28;20216;-69
2023/04/09 09:21:30;;;;;;;7.33;5.27;;;;;;;;;;5098152;28;20202;-70
2023/04/09 09:23:58;;;;;;;6.57;5.20;;;;;;;;;;5097551;28;20222;-71
2023/04/09 09:26:28;;;;;;;5.80;5.30;;;;;;;;;;5097814;28;20672;-70
2023/04/09 09:28:57;;;;;;;5.70;5.10;;;;;;;;;;5098137;28;20208;-70
2023/04/09 09:31:26;;;;;;;8.50;4.60;;;;;;;;;;5097802;28;20296;-69
2023/04/09 09:33:55;;;;;;;5.87;5.00;;;;;;;;;;5098063;28;20251;-70
2023/04/09 09:36:32;;;;;;;6.70;5.23;;;;;;;;;;5097731;28;20218;-71
2023/04/09 09:39:02;;;;;;;7.63;5.07;;;;;;;;;;5097446;28;20247;-70
2023/04/09 09:41:32;;;;;;;5.57;4.93;;;;;;;;;;5086310;28;20254;-71
2023/04/09 09:44:00;;;;;;;6.10;4.70;;;;;;;;;;5097923;28;20263;-70
2023/04/09 09:46:28;;;;;;;6.67;4.80;;;;;;;;;;5097886;28;20237;-71
2023/04/09 09:48:56;;;;;;;5.33;4.83;;;;;;;;;;5097611;28;20292;-71
2023/04/09 09:51:26;;;;;;;6.07;4.50;;;;;;;;;;5097574;28;20205;-71
2023/04/09 09:53:55;;;;;;;7.37;4.40;;;;;;;;;;5097559;28;20259;-70
2023/04/09 09:56:31;;;;;;;5.20;4.70;;;;;;;;;;5097569;28;20661;-70
2023/04/09 09:59:06;;;;;;;5.20;4.30;;;;;;;;;;5097428;28;20288;-71
2023/04/09 10:01:34;;;;;;;5.20;4.67;;;;;;;;;;5097731;28;20291;-71
2023/04/09 10:04:04;;;;;;;4.73;4.27;;;;;;;;;;5097371;28;20229;-70
2023/04/09 10:06:33;;;;;;;5.67;4.13;;;;;;;;;;5100802;28;20235;-71
2023/04/09 10:09:03;;;;;;;6.00;4.43;;;;;;;;;;5087467;28;20251;-71
2023/04/09 10:11:31;;;;;;;5.00;4.13;;;;;;;;;;5101307;28;20682;-71
2023/04/09 10:13:59;;;;;;;5.10;4.30;;;;;;;;;;5101612;28;20289;-71
2023/04/09 10:16:29;;;;;;;6.83;4.70;;;;;;;;;;5101168;28;20209;-70
2023/04/09 10:18:57;;;;;;;4.97;4.33;;;;;;;;;;5101351;28;20232;-70
2023/04/09 10:21:31;;;;;;;4.93;4.43;;;;;;;;;;5101036;28;20202;-71
2023/04/09 10:24:04;;;;;;;4.70;4.30;;;;;;;;;;5101026;28;20228;-71
2023/04/09 10:26:33;;;;;;;4.83;4.30;;;;;;;;;;5100817;28;20209;-71
2023/04/09 10:29:05;;;;;;;5.50;4.20;;;;;;;;;;5100877;28;20710;-70
2023/04/09 10:31:48;;;;;;;5.63;4.77;;;;;;;;;;5101127;28;20205;-71
2023/04/09 10:34:17;;;;;;;4.87;4.13;;;;;;;;;;5101157;28;20206;-71
2023/04/09 10:36:46;;;;;;;5.10;4.07;;;;;;;;;;5101176;28;20259;-71
2023/04/09 10:39:14;;;;;;;4.27;3.87;;;;;;;;;;5100343;28;20193;-70
2023/04/09 10:41:43;;;;;;;5.13;4.03;;;;;;;;;;5099122;28;20221;-70
2023/04/09 10:44:20;;;;;;;5.03;3.70;;;;;;;;;;5100571;28;20263;-71
2023/04/09 10:46:50;;;;;;;5.23;4.03;;;;;;;;;;5100863;28;20241;-71
2023/04/09 10:49:18;;;;;;;4.00;3.60;;;;;;;;;;5100724;28;20233;-71
2023/04/09 10:51:48;;;;;;;4.90;3.53;;;;;;;;;;5100763;28;20216;-72
2023/04/09 10:54:36;;;;;;;4.70;4.23;;;;;;;;;;5100348;28;20201;-70
2023/04/09 10:57:12;;;;;;;4.63;3.67;;;;;;;;;;5100204;28;20684;-70
2023/04/09 10:59:41;;;;;;;6.63;4.23;;;;;;;;;;5100237;28;20248;-70
2023/04/09 11:02:18;;;;;;;5.20;4.60;;;;;;;;;;5100082;28;20229;-70
2023/04/09 11:04:50;;;;;;;4.53;4.10;;;;;;;;;;5100104;28;20650;-71
2023/04/09 11:07:18;;;;;;;5.40;4.07;;;;;;;;;;5100392;28;20232;-71
2023/04/09 11:09:47;;;;;;;5.83;4.60;;;;;;;;;;5100203;28;20226;-71
2023/04/09 11:12:15;;;;;;;5.40;4.10;;;;;;;;;;5100254;28;20232;-70
2023/04/09 11:14:43;;;;;;;4.37;3.97;;;;;;;;;;5099903;28;20230;-71
2023/04/09 11:17:12;;;;;;;4.07;3.50;;;;;;;;;;5085755;28;20232;-71
2023/04/09 11:19:40;;;;;;;5.57;4.50;;;;;;;;;;5099927;28;20235;-71
2023/04/09 11:22:08;;;;;;;4.23;3.83;;;;;;;;;;5100380;28;20248;-71
2023/04/09 11:24:42;;;;;;;5.67;4.03;;;;;;;;;;5099386;28;20742;-71
2023/04/09 11:27:10;;;;;;;3.73;3.27;;;;;;;;;;5100044;28;20237;-71
2023/04/09 11:29:38;;;;;;;4.03;3.70;;;;;;;;;;5100029;28;20226;-71
2023/04/09 11:32:06;;;;;;;4.17;3.77;;;;;;;;;;5099796;28;20231;-71
2023/04/09 11:34:35;;;;;;;6.27;3.93;;;;;;;;;;5099763;28;20236;-71
2023/04/09 11:37:07;;;;;;;4.47;3.77;;;;;;;;;;5099541;28;20271;-70
2023/04/09 11:39:36;;;;;;;3.63;3.33;;;;;;;;;;5099202;28;20264;-70
2023/04/09 11:42:04;;;;;;;4.93;3.90;;;;;;;;;;5097757;28;20231;-70
2023/04/09 11:44:32;;;;;;;4.37;3.50;;;;;;;;;;5099294;28;20600;-71
2023/04/09 11:47:00;;;;;;;5.60;4.00;;;;;;;;;;5099417;28;20233;-71
2023/04/09 11:49:28;;;;;;;4.37;3.50;;;;;;;;;;5099480;28;20292;-70
2023/04/09 11:51:59;;;;;;;5.20;3.63;;;;;;;;;;5099645;28;20210;-71
2023/04/09 11:54:31;;;;;;;4.17;3.77;;;;;;;;;;5099158;28;20743;-71
2023/04/09 11:57:00;;;;;;;4.67;3.83;;;;;;;;;;5099476;28;20233;-71
2023/04/09 11:59:28;;;;;;;5.97;3.73;;;;;;;;;;5099231;28;20232;-70
2023/04/09 12:01:57;;;;;;;4.57;3.67;;;;;;;;;;5099350;28;20293;-70
2023/04/09 12:04:26;;;;;;;3.97;3.57;;;;;;;;;;5099466;28;20209;-70
2023/04/09 12:06:58;;;;;;;4.00;3.60;;;;;;;;;;5098996;28;20216;-70
2023/04/09 12:09:26;;;;;;;4.17;3.53;;;;;;;;;;5099029;28;20225;-71
2023/04/09 12:11:54;;;;;;;3.50;3.07;;;;;;;;;;5099050;28;20208;-71
2023/04/09 12:14:22;;;;;;;4.37;3.67;;;;;;;;;;5098956;28;20315;-71
2023/04/09 12:16:51;;;;;;;3.43;3.13;;;;;;;;;;5099052;28;20272;-71
2023/04/09 12:19:20;;;;;;;2.80;2.60;;;;;;;;;;5099058;28;20240;-70
2023/04/09 12:21:48;;;;;;;2.77;2.57;;;;;;;;;;5098835;28;20738;-70
2023/04/09 12:24:18;;;;;;;3.10;2.53;;;;;;;;;;5098577;28;20205;-71
2023/04/09 12:26:48;;;;;;;3.70;3.30;;;;;;;;;;5098650;28;20311;-71
2023/04/09 12:29:17;;;;;;;3.67;3.10;;;;;;;;;;5098097;28;20238;-71
2023/04/09 12:31:46;;;;;;;2.83;2.63;;;;;;;;;;5098428;28;20498;-70
2023/04/09 12:34:14;;;;;;;3.17;2.87;;;;;;;;;;5098462;28;20656;-71
2023/04/09 12:36:42;;;;;;;2.90;2.60;;;;;;;;;;5098579;28;20229;-71
2023/04/09 12:39:10;;;;;;;2.63;2.30;;;;;;;;;;5098247;28;20247;-71
2023/04/09 12:41:39;;;;;;;2.20;2.00;;;;;;;;;;5097026;28;20240;-71
2023/04/09 12:44:07;;;;;;;3.43;2.60;;;;;;;;;;5098313;28;20216;-71
2023/04/09 12:46:36;;;;;;;3.53;2.53;;;;;;;;;;5098292;28;20235;-71
2023/04/09 12:49:04;;;;;;;2.90;2.67;;;;;;;;;;5098511;28;20275;-71
2023/04/09 12:51:32;;;;;;;2.80;2.60;;;;;;;;;;5098536;28;20231;-71
2023/04/09 12:54:02;;;;;;;2.50;2.30;;;;;;;;;;5097842;28;20269;-71
2023/04/09 12:56:30;;;;;;;2.57;2.37;;;;;;;;;;5098098;28;20680;-71
2023/04/09 12:59:00;;;;;;;2.63;2.27;;;;;;;;;;5097895;28;20236;-71
2023/04/09 13:01:28;;;;;;;4.17;2.50;;;;;;;;;;5098109;28;20289;-71
2023/04/09 13:03:56;;;;;;;2.60;2.40;;;;;;;;;;5098002;28;20197;-71
2023/04/09 13:06:25;;;;;;;4.20;2.00;;;;;;;;;;5098121;28;20692;-71
2023/04/09 13:08:53;;;;;;;2.50;2.10;;;;;;;;;;5097740;28;20201;-71
2023/04/09 13:11:21;;;;;;;1.90;1.80;;;;;;;;;;5098062;28;20249;-71
2023/04/09 13:13:49;;;;;;;1.73;1.63;;;;;;;;;;5098488;28;20289;-71
2023/04/09 13:16:19;;;;;;;2.40;2.20;;;;;;;;;;5097832;28;20350;-71
2023/04/09 13:18:47;;;;;;;2.23;2.07;;;;;;;;;;5098629;28;20235;-71
2023/04/09 13:21:17;;;;;;;2.30;1.70;;;;;;;;;;5098077;28;20257;-71
2023/04/09 13:23:45;;;;;;;3.93;2.03;;;;;;;;;;5097908;28;20288;-71
2023/04/09 13:26:13;;;;;;;1.77;1.67;;;;;;;;;;5097959;28;20268;-71
2023/04/09 13:28:41;;;;;;;1.80;1.70;;;;;;;;;;5098071;28;20201;-71
2023/04/09 13:31:09;;;;;;;1.70;1.60;;;;;;;;;;5097835;28;20228;-71
2023/04/09 13:33:39;;;;;;;2.10;2.00;;;;;;;;;;5097905;28;20280;-70
2023/04/09 13:36:07;;;;;;;1.90;1.70;;;;;;;;;;5097991;28;20201;-71
2023/04/09 13:38:35;;;;;;;2.33;1.60;;;;;;;;;;5097890;28;20211;-70
2023/04/09 13:41:04;;;;;;;1.83;1.20;;;;;;;;;;5099689;28;20229;-71
2023/04/09 13:43:32;;;;;;;1.80;1.33;;;;;;;;;;5101978;28;20714;-70
2023/04/09 13:46:00;;;;;;;2.70;1.70;;;;;;;;;;5101954;28;20222;-71
2023/04/09 13:48:28;;;;;;;1.53;1.43;;;;;;;;;;5102062;28;20293;-71
2023/04/09 13:50:57;;;;;;;1.60;1.50;;;;;;;;;;5101655;28;20248;-71
2023/04/09 13:53:25;;;;;;;1.70;1.50;;;;;;;;;;5101377;28;20232;-71
2023/04/09 13:55:53;;;;;;;1.10;1.10;;;;;;;;;;5101616;28;20205;-71
2023/04/09 13:58:22;;;;;;;1.20;1.10;;;;;;;;;;5101705;28;20570;-70
2023/04/09 14:00:50;;;;;;;3.57;1.57;;;;;;;;;;5101603;28;20225;-71
2023/04/09 14:03:18;;;;;;;3.07;1.50;;;;;;;;;;5101752;28;20240;-71
2023/04/09 14:05:46;;;;;;;1.70;1.37;;;;;;;;;;5101528;28;20228;-71
2023/04/09 14:08:16;;;;;;;1.33;1.23;;;;;;;;;;5101922;28;20296;-72
2023/04/09 14:10:44;;;;;;;1.50;1.20;;;;;;;;;;5101587;28;20314;-71
2023/04/09 14:13:12;;;;;;;1.53;1.40;;;;;;;;;;5101352;28;20637;-71
2023/04/09 14:15:40;;;;;;;1.30;1.20;;;;;;;;;;5101185;28;20665;-71
2023/04/09 14:18:08;;;;;;;1.27;1.20;;;;;;;;;;5101039;28;20573;-71
2023/04/09 14:20:37;;;;;;;1.60;1.37;;;;;;;;;;5101273;28;20306;-71
2023/04/09 14:23:05;;;;;;;1.07;1.07;;;;;;;;;;5101045;28;20205;-71
2023/04/09 14:25:34;;;;;;;1.53;1.40;;;;;;;;;;5101012;28;20229;-71
2023/04/09 14:28:02;;;;;;;1.60;1.20;;;;;;;;;;5101287;28;20221;-71
2023/04/09 14:30:30;;;;;;;1.00;0.97;;;;;;;;;;5100991;28;20708;-71
2023/04/09 14:32:58;;;;;;;6.97;5.10;;;;;;;;;;5101052;28;20209;-71
2023/04/09 14:35:26;;;;;;;1.70;1.60;;;;;;;;;;5101141;28;20202;-71
2023/04/09 14:37:54;;;;;;;1.73;1.40;;;;;;;;;;5101053;28;20202;-71
2023/04/09 14:40:22;;;;;;;1.60;1.50;;;;;;;;;;5100509;28;20222;-71
2023/04/09 14:42:52;;;;;;;1.40;1.40;;;;;;;;;;5099045;28;20209;-71
2023/04/09 14:45:20;;;;;;;1.37;1.27;;;;;;;;;;5100754;28;20728;-71
2023/04/09 14:47:47;;;;;;;1.50;1.20;;;;;;;;;;5100384;28;20300;-71
2023/04/09 14:50:15;;;;;;;1.30;1.20;;;;;;;;;;5100204;28;20248;-71
2023/04/09 14:52:45;;;;;;;2.97;1.30;;;;;;;;;;5100178;28;20288;-71